Malinta, Ohio
Current Conditions -  °F | °C
As of 1:53 AM on Monday 22 Dec 2014 (Local Time) from KDFI Reporting Station
Haze Haze  
Wind Chill: 19°   Ceiling: Unl
Heat Index: 26°   Visibility: 5mi
Dew Point: 22°   Wind: 6mph
Humidity: 84%   Direction: 100°E
Pressure: 30.12"   Gusts: NA
Location:  41.32°N, 84.04°W
Report Text: KDFI 220653Z AUTO 10005KT 5SM BR CLR M03/M06 A3012 RMK AO2 SLP208 T10331056 TSNO
Loading
Personal Weather Stations






























Interactive Weather Map New forecast layout! Learn more

10-Day Weather Forecast

Advertisements
Track Severe Weather on mobile